Pendleton, OR (97801)

01:51:PST den 21. desember 2014 (GMT -0800)
Main Street | Change Station
CLOSE
Current Station
Personlig værstasjon
Location: Pendleton, OR
Høyde over havet: 1152 ft
Nearby Weather Stations
Gjeldende advarsel: Areal Flood Watch, Wind Advisory

H.o.h 1152 ft 45.67 °N, 118.78 °W | Updated 13 seconds ago

For det meste skyet
For det meste skyet
59.5 °F
Feels Like 59.5 °F
N
0.0
Vind Variabel Vind from SV
Gusts 0.0 mph

I dag
High -- | Low -- °F
--% Chance of Precip.
I går
High -- | Low -- °F
Precip. -- tommer
7:32 AM 4:13 PM
Minkende sigd, 1% visible
Lufttrykk 29.55 tommer
Sikt 10.0 eng. mil
Skyet Sporadisk skyet 8000 ft
Duggpunkt 47 °F
Fuktighet 64%
Regn 0.00 tommer
Snødybde Not available.
UV 0 av 12
Pollen .90 av 12
Luftkvalitet Not available.
Flu Activity Not available.
METAR KPDT 210853Z AUTO 24025G33KT 10SM SCT080 15/07 A2957 RMK AO2 PK WND 23034/0840 SLP007 T01500072 56012

More Conditions Fewer Conditions

Lufttrykk 29.55 tommer
Sikt 10.0 eng. mil
Skyet Sporadisk skyet 8000 ft
Duggpunkt 47 °F
Fuktighet 64%
Regn 0.00 tommer
Snødybde Not available.
UV 0 av 12
Pollen .90 av 12
Luftkvalitet Not available.
Flu Activity Not available.
METAR KPDT 210853Z AUTO 24025G33KT 10SM SCT080 15/07 A2957 RMK AO2 PK WND 23034/0840 SLP007 T01500072 56012

More Conditions Fewer Conditions

10-Day Weather Forecast

Almanac

Astronomi

Dec. 21, 2014 Oppgang Nedgang
Virkelig tid
Tussmørke
Nautisk skumring
Astronomisk skumring
Månen
Lengde av synlig lys
Dagens lengde
Tomorrow will be .
, % of the Moon is Illuminated

Dagens maks og min

State Highs State Lows

Community

WunderPhotos

Upload Photos

1,779,364 photos uploaded!

WunderBlogs® & News

Nearby

Luftkvalitet

  Luftkvalitet AQ Indeks Forurensing
Not available.

Snødybde

Stasjon Depth Høyde over havet

Earthquake Activity

By Distance Mag. Time & Date
Minimum magnitude displayed is 2.5.

Coastal Water Temperatures

Sted Temperatur

Nearby Weather Stations